Time;durP1;ratioP1;P1;durP2;ratioP2;P2;SDS_P1;SDS_P2;PMS_P1;PMS_P2;Temp;Humidity;BMP_temperature;BMP_pressure;BME280_temperature;BME280_humidity;BME280_pressure;Samples;Min_cycle;Max_cycle;Signal;HPM_P1;HPM_P2
2023/11/17 00:01:38;;;;;;;6.97;5.65;;;6.30;99.90;;;;;;5081362;28;20032;-35
2023/11/17 00:04:03;;;;;;;7.75;5.70;;;6.30;99.90;;;;;;5081027;28;20673;-37
2023/11/17 00:06:29;;;;;;;6.53;5.60;;;6.30;99.90;;;;;;5081803;28;20498;-36
2023/11/17 00:08:55;;;;;;;6.82;5.28;;;6.30;99.90;;;;;;5081941;28;20446;-36
2023/11/17 00:11:21;;;;;;;8.10;5.80;;;6.30;99.90;;;;;;5081882;28;20016;-36
2023/11/17 00:13:49;;;;;;;7.25;6.10;;;6.20;99.90;;;;;;5082114;28;20061;-36
2023/11/17 00:16:17;;;;;;;7.22;6.18;;;6.20;99.90;;;;;;5081617;28;20024;-41
2023/11/17 00:18:43;;;;;;;8.13;5.80;;;6.20;99.90;;;;;;5082154;28;20106;-36
2023/11/17 00:21:10;;;;;;;7.00;6.22;;;6.20;99.90;;;;;;5080901;28;20073;-36
2023/11/17 00:23:36;;;;;;;6.20;5.60;;;6.20;99.90;;;;;;5081763;28;20128;-37
2023/11/17 00:26:03;;;;;;;6.28;5.60;;;6.30;99.90;;;;;;5081626;28;20107;-37
2023/11/17 00:28:38;;;;;;;8.05;6.03;;;6.20;99.90;;;;;;5081031;28;20424;-36
2023/11/17 00:31:09;;;;;;;6.68;5.78;;;6.20;99.90;;;;;;5081397;28;20020;-36
2023/11/17 00:33:37;;;;;;;7.07;6.10;;;6.20;99.90;;;;;;5081350;28;20023;-37
2023/11/17 00:36:04;;;;;;;6.75;5.88;;;6.20;99.90;;;;;;5080064;28;20020;-37
2023/11/17 00:38:31;;;;;;;8.52;5.95;;;6.10;99.90;;;;;;5080507;28;20023;-37
2023/11/17 00:41:00;;;;;;;6.70;5.95;;;6.10;99.90;;;;;;5080868;28;20027;-36
2023/11/17 00:43:26;;;;;;;7.63;6.00;;;6.10;99.90;;;;;;5080255;28;20027;-36
2023/11/17 00:45:57;;;;;;;6.63;5.95;;;6.10;99.90;;;;;;5081448;28;20467;-37
2023/11/17 00:48:27;;;;;;;7.82;6.07;;;6.10;99.90;;;;;;5077069;28;20054;-37
2023/11/17 00:50:56;;;;;;;7.40;6.20;;;6.10;99.90;;;;;;5080870;28;20557;-40
2023/11/17 00:53:29;;;;;;;7.88;6.05;;;6.10;99.90;;;;;;5079660;28;20020;-36
2023/11/17 00:55:58;;;;;;;;;;;6.10;99.90;;;;;;5081454;28;20024;-36
2023/11/17 00:58:24;;;;;;;6.57;5.88;;;6.10;99.90;;;;;;5079641;28;21483;-36
2023/11/17 01:00:51;;;;;;;7.43;5.53;;;6.10;99.90;;;;;;5080788;28;20031;-36
2023/11/17 01:03:17;;;;;;;7.32;6.15;;;6.00;99.90;;;;;;5080100;28;20028;-36
2023/11/17 01:05:43;;;;;;;7.53;6.35;;;6.00;99.90;;;;;;5080716;28;20024;-36
2023/11/17 01:08:09;;;;;;;6.82;6.00;;;6.00;99.90;;;;;;5081047;28;20648;-36
2023/11/17 01:10:37;;;;;;;8.27;6.03;;;6.00;99.90;;;;;;5081043;28;20136;-34
2023/11/17 01:13:03;;;;;;;6.88;5.90;;;6.10;99.90;;;;;;5079674;28;20585;-36
2023/11/17 01:15:32;;;;;;;7.07;6.05;;;6.10;99.90;;;;;;5080252;28;20055;-37
2023/11/17 01:17:58;;;;;;;6.72;5.60;;;6.00;99.90;;;;;;5079694;28;20078;-36
2023/11/17 01:20:24;;;;;;;6.68;5.85;;;6.00;99.90;;;;;;5080561;28;20111;-36
2023/11/17 01:22:49;;;;;;;8.02;6.15;;;6.00;99.90;;;;;;5080623;28;20024;-36
2023/11/17 01:25:18;;;;;;;6.80;5.80;;;6.00;99.90;;;;;;5079567;28;20032;-36
2023/11/17 01:27:43;;;;;;;6.72;6.03;;;6.00;99.90;;;;;;5081079;28;20361;-37
2023/11/17 01:30:10;;;;;;;6.63;5.93;;;6.00;99.90;;;;;;5080581;28;20036;-37
2023/11/17 01:32:35;;;;;;;6.70;6.00;;;6.00;99.90;;;;;;5082321;28;20103;-36
2023/11/17 01:35:01;;;;;;;8.38;6.75;;;6.00;99.90;;;;;;5084645;28;20042;-37
2023/11/17 01:37:26;;;;;;;6.18;5.68;;;6.00;99.90;;;;;;5084497;28;20192;-37
2023/11/17 01:39:52;;;;;;;6.60;5.90;;;6.00;99.90;;;;;;5084013;28;20031;-37
2023/11/17 01:42:17;;;;;;;8.23;6.38;;;6.00;99.90;;;;;;5084095;28;20047;-35
2023/11/17 01:44:43;;;;;;;8.25;6.28;;;6.00;99.90;;;;;;5084339;28;20035;-36
2023/11/17 01:47:10;;;;;;;7.43;6.00;;;6.00;99.90;;;;;;5084330;28;20047;-37
2023/11/17 01:49:36;;;;;;;8.40;6.10;;;6.00;99.90;;;;;;5084248;28;20044;-35
2023/11/17 01:52:04;;;;;;;6.88;6.07;;;6.00;99.90;;;;;;5084117;28;20547;-36
2023/11/17 01:54:32;;;;;;;6.82;6.22;;;6.00;99.90;;;;;;5083521;28;20137;-37
2023/11/17 01:56:57;;;;;;;6.88;6.18;;;6.00;99.90;;;;;;5084631;28;20859;-37
2023/11/17 01:59:23;;;;;;;6.38;5.78;;;6.00;99.90;;;;;;5084516;28;20027;-36
2023/11/17 02:01:50;;;;;;;6.95;6.25;;;6.00;99.90;;;;;;5084742;28;20135;-37
2023/11/17 02:04:17;;;;;;;7.07;6.15;;;6.00;99.90;;;;;;5084096;28;20016;-36
2023/11/17 02:06:54;;;;;;;7.15;6.45;;;6.00;99.90;;;;;;5084475;28;20028;-35
2023/11/17 02:09:44;;;;;;;6.38;5.78;;;6.00;99.90;;;;;;5083793;28;20026;-37
2023/11/17 02:12:14;;;;;;;6.70;5.97;;;6.10;99.90;;;;;;5084199;28;20537;-38
2023/11/17 02:14:43;;;;;;;9.07;6.82;;;6.10;99.90;;;;;;5083839;28;20105;-35
2023/11/17 02:17:15;;;;;;;6.57;5.85;;;6.10;99.90;;;;;;5083892;28;20696;-35
2023/11/17 02:19:45;;;;;;;7.43;5.88;;;6.10;99.90;;;;;;5084032;28;20799;-36
2023/11/17 02:22:21;;;;;;;7.07;6.38;;;6.10;99.90;;;;;;5083939;28;20035;-35
2023/11/17 02:25:15;;;;;;;6.97;6.28;;;6.10;99.90;;;;;;5083966;28;20031;-36
2023/11/17 02:28:12;;;;;;;7.55;6.10;;;6.10;99.90;;;;;;5084269;28;20075;-36
2023/11/17 02:30:39;;;;;;;7.30;5.95;;;6.00;99.90;;;;;;5084130;28;20105;-36
2023/11/17 02:33:08;;;;;;;7.10;5.88;;;6.00;99.90;;;;;;5083288;28;20103;-36
2023/11/17 02:35:36;;;;;;;7.32;6.53;;;6.10;99.90;;;;;;5082852;28;20048;-36
2023/11/17 02:38:05;;;;;;;8.10;6.28;;;6.00;99.90;;;;;;5084150;28;20028;-36
2023/11/17 02:40:37;;;;;;;7.18;6.03;;;6.00;99.90;;;;;;5083812;28;20028;-35
2023/11/17 02:43:07;;;;;;;7.60;6.53;;;6.00;99.90;;;;;;5083532;28;20027;-36
2023/11/17 02:45:38;;;;;;;9.45;6.22;;;6.00;99.90;;;;;;5083184;28;20035;-35
2023/11/17 02:48:04;;;;;;;7.53;6.32;;;6.00;99.90;;;;;;5083378;28;20425;-36
2023/11/17 02:50:51;;;;;;;7.00;6.30;;;6.00;99.90;;;;;;5081510;28;20487;-37
2023/11/17 02:53:23;;;;;;;7.10;6.15;;;6.00;99.90;;;;;;5066603;28;20042;-36
2023/11/17 02:55:56;;;;;;;7.45;6.22;;;6.00;99.90;;;;;;5081065;28;20031;-36
2023/11/17 02:58:24;;;;;;;7.88;6.78;;;6.00;99.90;;;;;;5073496;28;20484;-37
2023/11/17 03:00:51;;;;;;;8.10;6.93;;;6.00;99.90;;;;;;5082046;28;20025;-37
2023/11/17 03:03:22;;;;;;;7.78;6.38;;;5.90;99.90;;;;;;5060258;28;20027;-37
2023/11/17 03:05:55;;;;;;;8.77;7.05;;;5.90;99.90;;;;;;5082506;28;20640;-37
2023/11/17 03:08:21;;;;;;;;;;;5.90;99.90;;;;;;5072079;28;20077;-36
2023/11/17 03:10:47;;;;;;;8.18;6.70;;;5.90;99.90;;;;;;5080472;28;20645;-36
2023/11/17 03:13:15;;;;;;;7.65;6.35;;;5.90;99.90;;;;;;5071915;28;20024;-36
2023/11/17 03:15:43;;;;;;;8.82;6.82;;;5.80;99.90;;;;;;5084048;28;20103;-36
2023/11/17 03:18:12;;;;;;;7.22;6.47;;;5.80;99.90;;;;;;5069616;28;20113;-35
2023/11/17 03:20:37;;;;;;;7.70;6.78;;;5.80;99.90;;;;;;5082704;28;20610;-35
2023/11/17 03:23:03;;;;;;;10.35;7.05;;;5.80;99.90;;;;;;5069336;28;20030;-36
2023/11/17 03:25:28;;;;;;;7.10;6.38;;;5.80;99.90;;;;;;5082078;28;20023;-35
2023/11/17 03:27:54;;;;;;;8.77;6.68;;;5.80;99.90;;;;;;5071011;28;20518;-36
2023/11/17 03:30:20;;;;;;;8.85;7.20;;;5.80;99.90;;;;;;5080922;28;20407;-37
2023/11/17 03:32:46;;;;;;;9.32;7.13;;;5.70;99.90;;;;;;5072508;28;20028;-35
2023/11/17 03:35:15;;;;;;;8.50;6.30;;;5.70;99.90;;;;;;5077891;28;20069;-37
2023/11/17 03:37:41;;;;;;;8.75;6.60;;;5.70;99.90;;;;;;5076117;28;20028;-37
2023/11/17 03:40:11;;;;;;;7.70;6.90;;;5.70;99.90;;;;;;5075395;28;20028;-37
2023/11/17 03:42:37;;;;;;;7.97;6.70;;;5.70;99.90;;;;;;5077762;28;20095;-37
2023/11/17 03:45:08;;;;;;;9.15;6.60;;;5.70;99.90;;;;;;5074354;28;20036;-37
2023/11/17 03:47:34;;;;;;;9.70;6.68;;;5.70;99.90;;;;;;5079030;28;20066;-36
2023/11/17 03:50:01;;;;;;;7.72;6.90;;;5.70;99.90;;;;;;5078948;28;20109;-36
2023/11/17 03:52:27;;;;;;;7.55;6.75;;;5.70;99.90;;;;;;5081398;28;20027;-37
2023/11/17 03:54:56;;;;;;;8.98;7.07;;;5.70;99.90;;;;;;5081555;28;20425;-37
2023/11/17 03:57:22;;;;;;;8.65;7.20;;;5.70;99.90;;;;;;5080872;28;20518;-37
2023/11/17 03:59:47;;;;;;;11.00;7.38;;;5.70;99.90;;;;;;5081393;28;20335;-36
2023/11/17 04:02:13;;;;;;;14.10;8.02;;;5.70;99.90;;;;;;5082340;28;20465;-37
2023/11/17 04:04:39;;;;;;;12.38;7.80;;;5.70;99.90;;;;;;5081747;28;20043;-37
2023/11/17 04:07:05;;;;;;;11.25;7.88;;;5.70;99.90;;;;;;5081637;28;20454;-37
2023/11/17 04:09:33;;;;;;;12.07;7.40;;;5.70;99.90;;;;;;5081502;28;20638;-38
2023/11/17 04:12:02;;;;;;;8.95;7.00;;;5.70;99.90;;;;;;5081286;28;20467;-37
2023/11/17 04:14:37;;;;;;;12.93;6.55;;;5.70;99.90;;;;;;5080999;28;20047;-36
2023/11/17 04:17:03;;;;;;;12.00;6.72;;;5.80;99.90;;;;;;5061779;28;20070;-36
2023/11/17 04:19:29;;;;;;;13.60;6.25;;;5.80;99.90;;;;;;5075551;28;20378;-36
2023/11/17 04:21:55;;;;;;;11.27;5.63;;;5.80;99.90;;;;;;5080684;28;20130;-35
2023/11/17 04:24:21;;;;;;;6.60;5.70;;;5.80;99.90;;;;;;5081473;28;20085;-35
2023/11/17 04:26:48;;;;;;;6.88;5.50;;;5.80;99.90;;;;;;5081761;28;20076;-37
2023/11/17 04:29:14;;;;;;;7.30;5.40;;;5.80;99.90;;;;;;5080021;28;20487;-36
2023/11/17 04:31:39;;;;;;;9.77;5.57;;;5.80;99.90;;;;;;5081512;28;20032;-36
2023/11/17 04:34:05;;;;;;;6.63;4.88;;;5.80;99.90;;;;;;5080912;28;20607;-36
2023/11/17 04:36:32;;;;;;;9.70;5.30;;;5.80;99.90;;;;;;5080696;28;20025;-35
2023/11/17 04:38:58;;;;;;;8.30;4.82;;;5.80;99.90;;;;;;5081683;28;20109;-35
2023/11/17 04:41:25;;;;;;;8.85;5.20;;;5.80;99.90;;;;;;5080973;28;20122;-35
2023/11/17 04:43:51;;;;;;;7.80;5.40;;;5.80;99.90;;;;;;5080644;28;20107;-35
2023/11/17 04:46:20;;;;;;;7.97;5.43;;;5.80;99.90;;;;;;5076387;28;20689;-36
2023/11/17 04:48:49;;;;;;;5.78;5.28;;;5.70;99.90;;;;;;5080892;28;20055;-36
2023/11/17 04:51:15;;;;;;;12.95;5.68;;;5.70;99.90;;;;;;5080089;28;20017;-39
2023/11/17 04:53:40;;;;;;;6.10;5.60;;;5.70;99.90;;;;;;5081179;28;20065;-36
2023/11/17 04:56:07;;;;;;;8.70;5.30;;;5.70;99.90;;;;;;5080230;28;20060;-36
2023/11/17 04:58:32;;;;;;;6.45;5.85;;;5.70;99.90;;;;;;5080956;28;20036;-36
2023/11/17 05:00:58;;;;;;;8.38;5.68;;;5.70;99.90;;;;;;5080429;28;20867;-36
2023/11/17 05:03:24;;;;;;;5.95;5.35;;;5.70;99.90;;;;;;5081074;28;20024;-36
2023/11/17 05:05:49;;;;;;;6.63;5.25;;;5.70;99.90;;;;;;5080743;28;20028;-35
2023/11/17 05:08:16;;;;;;;5.80;5.18;;;5.70;99.90;;;;;;5079817;28;20028;-38
2023/11/17 05:10:42;;;;;;;6.35;5.75;;;5.80;99.90;;;;;;5079800;28;20502;-35
2023/11/17 05:13:08;;;;;;;5.95;5.35;;;5.80;99.90;;;;;;5080740;28;20032;-36
2023/11/17 05:15:34;;;;;;;5.88;5.32;;;5.80;99.90;;;;;;5079615;28;20082;-37
2023/11/17 05:17:59;;;;;;;8.52;5.80;;;5.80;99.90;;;;;;5080067;28;20046;-37
2023/11/17 05:20:25;;;;;;;6.35;5.13;;;5.80;99.90;;;;;;5080331;28;20055;-37
2023/11/17 05:22:54;;;;;;;8.98;5.72;;;5.80;99.90;;;;;;5080272;28;20912;-36
2023/11/17 05:25:20;;;;;;;11.40;5.55;;;5.80;99.90;;;;;;5079752;28;20051;-36
2023/11/17 05:27:46;;;;;;;9.40;5.53;;;5.80;99.90;;;;;;5080357;28;20448;-36
2023/11/17 05:30:12;;;;;;;7.68;5.35;;;5.80;99.90;;;;;;5080331;28;20024;-36
2023/11/17 05:32:40;;;;;;;22.88;5.30;;;5.80;99.90;;;;;;5079939;28;20039;-36
2023/11/17 05:35:09;;;;;;;10.82;5.93;;;5.80;99.90;;;;;;5080343;28;20733;-37
2023/11/17 05:37:35;;;;;;;7.93;5.90;;;5.80;99.90;;;;;;5078975;28;20884;-37
2023/11/17 05:40:01;;;;;;;9.20;6.20;;;5.80;99.90;;;;;;5079310;28;20028;-38
2023/11/17 05:42:29;;;;;;;10.52;6.35;;;5.80;99.90;;;;;;5080526;28;20028;-37
2023/11/17 05:44:55;;;;;;;14.82;5.70;;;5.80;99.90;;;;;;5080521;28;20156;-37
2023/11/17 05:47:21;;;;;;;11.57;6.00;;;5.80;99.90;;;;;;5080401;28;20826;-36
2023/11/17 05:49:47;;;;;;;11.23;5.93;;;5.80;99.90;;;;;;5080517;28;20040;-37
2023/11/17 05:52:14;;;;;;;6.97;6.30;;;5.70;99.90;;;;;;5071851;28;20020;-36
2023/11/17 05:54:44;;;;;;;6.13;5.53;;;5.70;99.90;;;;;;5075216;28;20035;-37
2023/11/17 05:57:16;;;;;;;7.53;5.95;;;5.70;99.90;;;;;;5074672;28;20018;-36
2023/11/17 05:59:43;;;;;;;6.45;5.80;;;5.70;99.90;;;;;;5073444;28;20080;-36
2023/11/17 06:02:10;;;;;;;6.72;5.95;;;5.70;99.90;;;;;;5077068;28;20035;-36
2023/11/17 06:04:37;;;;;;;5.82;5.30;;;5.60;99.90;;;;;;5072137;28;20027;-37
2023/11/17 06:07:03;;;;;;;5.70;5.20;;;5.60;99.90;;;;;;5078760;28;20028;-38
2023/11/17 06:09:29;;;;;;;5.88;5.35;;;5.60;99.90;;;;;;5058513;28;20020;-36
2023/11/17 06:11:56;;;;;;;5.97;5.43;;;5.60;99.90;;;;;;5078355;28;20437;-36
2023/11/17 06:14:30;;;;;;;5.50;5.00;;;5.60;99.90;;;;;;5068354;28;20428;-36
2023/11/17 06:16:57;;;;;;;5.25;4.75;;;5.60;99.90;;;;;;5079993;28;20039;-36
2023/11/17 06:19:24;;;;;;;5.90;5.40;;;5.60;99.90;;;;;;5070515;28;20039;-36
2023/11/17 06:21:50;;;;;;;5.93;5.20;;;5.60;99.90;;;;;;5062618;28;20782;-36
2023/11/17 06:24:16;;;;;;;6.00;5.40;;;5.70;99.90;;;;;;5075416;28;20035;-35
2023/11/17 06:26:45;;;;;;;6.38;5.13;;;5.70;99.90;;;;;;5064121;28;20028;-36
2023/11/17 06:29:11;;;;;;;5.97;5.38;;;5.70;99.90;;;;;;5075511;28;20103;-36
2023/11/17 06:31:37;;;;;;;6.35;5.47;;;5.70;99.90;;;;;;5064797;28;20029;-36
2023/11/17 06:34:04;;;;;;;5.50;4.97;;;5.70;99.90;;;;;;5072129;28;20038;-37
2023/11/17 06:36:30;;;;;;;5.50;5.00;;;5.70;99.90;;;;;;5063478;28;20025;-37
2023/11/17 06:38:56;;;;;;;5.32;4.88;;;5.70;99.90;;;;;;5071058;28;20035;-36
2023/11/17 06:41:23;;;;;;;5.25;4.75;;;5.70;99.90;;;;;;5066257;28;20029;-37
2023/11/17 06:43:51;;;;;;;5.50;5.00;;;5.70;99.90;;;;;;5068876;28;20043;-37
2023/11/17 06:46:17;;;;;;;5.57;4.93;;;5.80;99.90;;;;;;5069089;28;20135;-37
2023/11/17 06:48:42;;;;;;;5.53;5.03;;;5.80;99.90;;;;;;5065165;28;20075;-36
2023/11/17 06:51:08;;;;;;;5.55;5.05;;;5.70;99.90;;;;;;5071230;28;20555;-37
2023/11/17 06:53:34;;;;;;;5.65;5.10;;;5.80;99.90;;;;;;5063582;28;20073;-37
2023/11/17 06:56:00;;;;;;;5.72;5.00;;;5.80;99.90;;;;;;5054705;28;20384;-37
2023/11/17 06:58:26;;;;;;;5.57;5.07;;;5.80;99.90;;;;;;5063470;28;20115;-36
2023/11/17 07:00:51;;;;;;;5.53;5.00;;;5.80;99.90;;;;;;5073691;28;20025;-37
2023/11/17 07:03:17;;;;;;;5.30;4.80;;;5.80;99.90;;;;;;5061267;28;20040;-37
2023/11/17 07:05:42;;;;;;;6.03;4.90;;;5.80;99.90;;;;;;5069291;28;20463;-37
2023/11/17 07:08:08;;;;;;;5.53;5.03;;;5.80;99.90;;;;;;5082532;28;20849;-37
2023/11/17 07:10:34;;;;;;;7.25;5.25;;;5.80;99.90;;;;;;5068915;28;20024;-40
2023/11/17 07:12:59;;;;;;;7.15;5.00;;;5.80;99.90;;;;;;5083058;28;20024;-37
2023/11/17 07:15:25;;;;;;;5.95;5.35;;;5.80;99.90;;;;;;5071075;28;20120;-36
2023/11/17 07:17:53;;;;;;;5.38;4.88;;;5.90;99.90;;;;;;5079997;28;20034;-36
2023/11/17 07:20:21;;;;;;;5.97;5.38;;;5.80;99.90;;;;;;5073616;28;20031;-37
2023/11/17 07:22:49;;;;;;;7.07;5.43;;;5.90;99.90;;;;;;5078151;28;20044;-37
2023/11/17 07:25:18;;;;;;;7.20;6.50;;;5.90;99.90;;;;;;5073574;28;20129;-36
2023/11/17 07:27:44;;;;;;;6.40;5.78;;;5.90;99.90;;;;;;5076467;28;20051;-36
2023/11/17 07:30:13;;;;;;;7.65;6.80;;;5.90;99.90;;;;;;5076671;28;20036;-36
2023/11/17 07:32:42;;;;;;;7.03;6.25;;;5.90;99.90;;;;;;5073308;28;20765;-37
2023/11/17 07:35:08;;;;;;;7.20;6.50;;;5.90;99.90;;;;;;5079089;28;20031;-37
2023/11/17 07:37:34;;;;;;;8.25;6.50;;;5.90;99.90;;;;;;5070991;28;20036;-41
2023/11/17 07:40:01;;;;;;;14.52;6.15;;;5.90;99.90;;;;;;5078479;28;20020;-36
2023/11/17 07:42:26;;;;;;;10.52;5.25;;;5.90;99.90;;;;;;5072500;28;20025;-36
2023/11/17 07:44:52;;;;;;;5.68;5.18;;;6.00;99.90;;;;;;5061914;28;20032;-37
2023/11/17 07:47:20;;;;;;;5.55;5.05;;;6.00;99.90;;;;;;5072546;28;20037;-37
2023/11/17 07:49:45;;;;;;;6.10;5.18;;;6.00;99.90;;;;;;5077169;28;20105;-37
2023/11/17 07:52:11;;;;;;;5.72;5.15;;;6.00;99.90;;;;;;5081395;28;20028;-38
2023/11/17 07:54:37;;;;;;;5.82;5.28;;;5.90;99.90;;;;;;5082720;28;20063;-36
2023/11/17 07:57:02;;;;;;;6.22;5.63;;;6.00;99.90;;;;;;5082861;28;20028;-36
2023/11/17 07:59:28;;;;;;;6.50;5.50;;;6.00;99.90;;;;;;5062390;28;20032;-36
2023/11/17 08:01:55;;;;;;;6.47;5.78;;;6.00;99.90;;;;;;5076166;28;20100;-37
2023/11/17 08:04:22;;;;;;;13.52;5.50;;;6.10;99.90;;;;;;5082468;28;20038;-37
2023/11/17 08:06:48;;;;;;;19.00;5.75;;;6.10;99.90;;;;;;5081534;28;20168;-37
2023/11/17 08:09:16;;;;;;;8.27;5.68;;;6.10;99.90;;;;;;5081675;28;20531;-36
2023/11/17 08:11:42;;;;;;;10.82;5.85;;;6.20;99.90;;;;;;5089940;28;20028;-37
2023/11/17 08:14:08;;;;;;;8.63;5.75;;;6.20;99.90;;;;;;5088971;28;20869;-36
2023/11/17 08:16:34;;;;;;;12.32;6.40;;;6.20;99.90;;;;;;5081711;28;20035;-37
2023/11/17 08:19:08;;;;;;;7.85;6.57;;;6.20;99.90;;;;;;5081728;28;20051;-36
2023/11/17 08:21:34;;;;;;;7.80;6.80;;;6.20;99.90;;;;;;5080332;28;20120;-37
2023/11/17 08:23:59;;;;;;;8.05;6.80;;;6.20;99.90;;;;;;5081242;28;20028;-36
2023/11/17 08:26:33;;;;;;;7.13;6.40;;;6.20;99.90;;;;;;5080484;28;20132;-37
2023/11/17 08:28:59;;;;;;;7.00;6.30;;;6.20;99.90;;;;;;5080753;28;20546;-36
2023/11/17 08:31:26;;;;;;;7.40;6.22;;;6.20;99.90;;;;;;5081421;28;20032;-36
2023/11/17 08:33:52;;;;;;;7.60;6.80;;;6.20;99.90;;;;;;5076825;28;20048;-36
2023/11/17 08:36:19;;;;;;;8.45;6.80;;;6.20;99.90;;;;;;5081154;28;20634;-36
2023/11/17 08:38:45;;;;;;;7.70;6.90;;;6.20;99.90;;;;;;5080896;28;20028;-36
2023/11/17 08:41:11;;;;;;;7.90;6.75;;;6.20;99.90;;;;;;5079673;28;20424;-36
2023/11/17 08:43:42;;;;;;;7.13;6.40;;;6.20;99.90;;;;;;5080561;28;20074;-37
2023/11/17 08:46:14;;;;;;;7.78;6.95;;;6.20;99.90;;;;;;5081096;28;20132;-36
2023/11/17 08:48:40;;;;;;;8.48;7.13;;;6.20;99.90;;;;;;5080009;28;20058;-36
2023/11/17 08:51:06;;;;;;;8.35;7.15;;;6.20;99.90;;;;;;5061259;28;20814;-36
2023/11/17 08:53:32;;;;;;;8.07;6.63;;;6.20;99.90;;;;;;5069396;28;20686;-36
2023/11/17 08:56:00;;;;;;;7.90;7.03;;;6.20;99.90;;;;;;5062685;28;20479;-37
2023/11/17 08:58:26;;;;;;;9.05;6.88;;;6.20;99.90;;;;;;5067004;28;20464;-36
2023/11/17 09:00:52;;;;;;;8.02;7.22;;;6.20;99.90;;;;;;5066587;28;20024;-37
2023/11/17 09:03:17;;;;;;;9.75;7.07;;;6.20;99.90;;;;;;5063806;28;20115;-36
2023/11/17 09:05:44;;;;;;;8.02;7.15;;;6.20;99.90;;;;;;5069373;28;20047;-37
2023/11/17 09:08:10;;;;;;;7.88;7.07;;;6.20;99.90;;;;;;5064703;28;20040;-37
2023/11/17 09:10:37;;;;;;;8.57;7.32;;;6.20;99.90;;;;;;5069439;28;20043;-37
2023/11/17 09:13:04;;;;;;;10.02;7.30;;;6.20;99.90;;;;;;5078506;28;20028;-43
2023/11/17 09:15:33;;;;;;;9.95;7.90;;;6.20;99.90;;;;;;5069226;28;20027;-35
2023/11/17 09:17:59;;;;;;;9.60;8.10;;;6.20;99.90;;;;;;5079068;28;20116;-36
2023/11/17 09:20:26;;;;;;;11.20;8.48;;;6.20;99.90;;;;;;5068262;28;20028;-36
2023/11/17 09:22:52;;;;;;;11.55;8.63;;;6.30;99.90;;;;;;5081143;28;20033;-38
2023/11/17 09:25:19;;;;;;;10.00;7.93;;;6.30;99.90;;;;;;5066790;28;20033;-36
2023/11/17 09:27:56;;;;;;;8.98;7.90;;;6.40;99.90;;;;;;5080534;28;20558;-37
2023/11/17 09:30:23;;;;;;;9.80;7.82;;;6.50;99.90;;;;;;5066807;28;20103;-36
2023/11/17 09:32:57;;;;;;;8.88;7.80;;;6.50;99.90;;;;;;5080546;28;20107;-37
2023/11/17 09:35:25;;;;;;;7.28;6.50;;;6.60;99.90;;;;;;5067295;28;20020;-37
2023/11/17 09:37:56;;;;;;;9.48;7.90;;;6.70;99.90;;;;;;5080234;28;20024;-36
2023/11/17 09:40:33;;;;;;;8.85;7.95;;;6.70;99.90;;;;;;5067671;28;20052;-37
2023/11/17 09:43:02;;;;;;;8.70;7.80;;;6.80;99.90;;;;;;5048966;28;20531;-36
2023/11/17 09:45:32;;;;;;;8.80;7.80;;;6.80;99.90;;;;;;5070242;28;20657;-36
2023/11/17 09:48:04;;;;;;;8.57;7.15;;;6.90;99.90;;;;;;5061259;28;20096;-36
2023/11/17 09:50:30;;;;;;;9.32;7.85;;;6.90;99.90;;;;;;5079446;28;20483;-37
2023/11/17 09:52:59;;;;;;;8.93;8.02;;;7.00;99.90;;;;;;5078436;28;20542;-37
2023/11/17 09:55:28;;;;;;;9.75;7.53;;;7.10;99.90;;;;;;5083830;28;20031;-37
2023/11/17 09:57:58;;;;;;;10.35;8.40;;;7.10;99.90;;;;;;5083809;28;20028;-38
2023/11/17 10:00:27;;;;;;;8.80;7.90;;;7.20;99.90;;;;;;5083371;28;20034;-37
2023/11/17 10:02:59;;;;;;;8.93;8.00;;;7.20;99.90;;;;;;5084486;28;20034;-37
2023/11/17 10:05:31;;;;;;;9.05;7.75;;;7.30;99.90;;;;;;5083248;28;20094;-36
2023/11/17 10:08:01;;;;;;;8.18;7.38;;;7.30;99.90;;;;;;5083438;28;20121;-36
2023/11/17 10:10:27;;;;;;;7.68;6.88;;;7.40;99.90;;;;;;5083384;28;20024;-37
2023/11/17 10:12:57;;;;;;;10.68;7.97;;;7.40;99.90;;;;;;5083262;28;20024;-36
2023/11/17 10:15:26;;;;;;;9.52;7.53;;;7.40;99.90;;;;;;5083183;28;20095;-36
2023/11/17 10:18:06;;;;;;;8.40;7.60;;;7.50;99.90;;;;;;5083724;28;20032;-37
2023/11/17 10:20:37;;;;;;;11.20;8.23;;;7.50;99.90;;;;;;5083754;28;20020;-37
2023/11/17 10:23:04;;;;;;;9.05;8.10;;;7.50;99.90;;;;;;5083841;28;20032;-36
2023/11/17 10:25:30;;;;;;;9.90;7.90;;;7.50;99.90;;;;;;5081644;28;20123;-37
2023/11/17 10:27:57;;;;;;;8.52;7.63;;;7.60;99.90;;;;;;5082484;28;20120;-38
2023/11/17 10:30:30;;;;;;;9.40;8.27;;;7.60;99.90;;;;;;5083377;28;20035;-37
2023/11/17 10:33:06;;;;;;;9.77;8.38;;;7.70;99.90;;;;;;5080524;28;20043;-37
2023/11/17 10:35:34;;;;;;;11.98;8.60;;;7.70;99.90;;;;;;5082374;28;20024;-37
2023/11/17 10:38:04;;;;;;;10.85;8.45;;;7.80;99.90;;;;;;5079698;28;20028;-37
2023/11/17 10:40:38;;;;;;;9.13;7.57;;;7.90;99.90;;;;;;5082526;28;20028;-36
2023/11/17 10:43:11;;;;;;;9.05;7.93;;;8.00;99.90;;;;;;5082131;28;20114;-37
2023/11/17 10:45:39;;;;;;;8.80;7.70;;;8.10;99.90;;;;;;5083221;28;20058;-36
2023/11/17 10:48:12;;;;;;;8.88;7.97;;;8.20;99.90;;;;;;5081015;28;20521;-37
2023/11/17 10:50:38;;;;;;;7.97;7.18;;;8.30;99.90;;;;;;5081991;28;20071;-36
2023/11/17 10:53:18;;;;;;;9.85;8.43;;;8.40;99.90;;;;;;5069883;28;20032;-37
2023/11/17 10:55:43;;;;;;;8.85;7.38;;;8.50;99.90;;;;;;5083111;28;20099;-36
2023/11/17 10:58:15;;;;;;;9.00;7.90;;;8.60;99.90;;;;;;5070689;28;20472;-35
2023/11/17 11:00:42;;;;;;;8.93;7.33;;;8.80;99.90;;;;;;5084202;28;20031;-36
2023/11/17 11:03:13;;;;;;;8.13;6.85;;;8.80;99.90;;;;;;5070773;28;20259;-35
2023/11/17 11:05:42;;;;;;;7.63;6.90;;;8.90;99.90;;;;;;5081525;28;20031;-35
2023/11/17 11:08:15;;;;;;;7.25;6.55;;;9.00;99.90;;;;;;5071273;28;20048;-36
2023/11/17 11:10:49;;;;;;;6.88;6.18;;;9.00;99.90;;;;;;5081326;28;20027;-36
2023/11/17 11:13:16;;;;;;;6.30;5.70;;;9.10;99.90;;;;;;5072363;28;20067;-37
2023/11/17 11:15:42;;;;;;;6.72;6.13;;;9.20;99.90;;;;;;5078372;28;20020;-37
2023/11/17 11:18:15;;;;;;;6.43;5.65;;;9.20;99.90;;;;;;5073341;28;20099;-37
2023/11/17 11:20:45;;;;;;;7.13;6.43;;;9.20;99.90;;;;;;5078602;28;20447;-38
2023/11/17 11:23:12;;;;;;;6.57;5.60;;;9.30;99.90;;;;;;5077727;28;20024;-36
2023/11/17 11:25:40;;;;;;;7.10;5.55;;;9.30;99.90;;;;;;5069241;28;20027;-36
2023/11/17 11:28:08;;;;;;;6.05;5.45;;;9.30;99.90;;;;;;5066203;28;20040;-37
2023/11/17 11:30:36;;;;;;;4.57;4.18;;;9.40;99.90;;;;;;5069522;28;20641;-36
2023/11/17 11:33:02;;;;;;;4.93;4.43;;;9.40;99.90;;;;;;5064010;28;20069;-36
2023/11/17 11:35:29;;;;;;;4.85;4.35;;;9.50;99.90;;;;;;5072724;28;20249;-36
2023/11/17 11:37:55;;;;;;;5.63;5.13;;;9.50;99.90;;;;;;5062069;28;20016;-37
2023/11/17 11:40:20;;;;;;;5.18;4.68;;;9.60;99.90;;;;;;5073427;28;20020;-38
2023/11/17 11:42:46;;;;;;;5.28;4.78;;;9.60;99.90;;;;;;5062117;28;20036;-36
2023/11/17 11:45:16;;;;;;;5.05;4.55;;;9.60;99.90;;;;;;5072910;28;20025;-36
2023/11/17 11:47:49;;;;;;;4.78;4.35;;;9.60;99.90;;;;;;5062315;28;20051;-36
2023/11/17 11:50:20;;;;;;;5.38;4.28;;;9.70;99.90;;;;;;5074221;28;20082;-36
2023/11/17 11:53:17;;;;;;;4.90;4.40;;;9.80;99.90;;;;;;5061240;28;20024;-37
2023/11/17 11:55:46;;;;;;;5.10;4.65;;;9.90;99.90;;;;;;5045221;28;20037;-36
2023/11/17 11:58:12;;;;;;;5.28;4.80;;;9.90;99.90;;;;;;5060960;28;20078;-37
2023/11/17 12:00:39;;;;;;;6.07;4.85;;;10.00;99.90;;;;;;5068959;28;20031;-36
2023/11/17 12:03:07;;;;;;;6.13;5.40;;;10.10;99.90;;;;;;5081569;28;20039;-36
2023/11/17 12:05:42;;;;;;;6.22;5.47;;;10.10;99.90;;;;;;5067868;28;20036;-43
2023/11/17 12:08:27;;;;;;;6.38;5.25;;;10.10;99.90;;;;;;5081922;28;20059;-36
2023/11/17 12:11:01;;;;;;;6.70;5.55;;;10.20;99.90;;;;;;5068677;28;20060;-37
2023/11/17 12:13:54;;;;;;;6.25;5.65;;;10.20;99.90;;;;;;5080737;28;20024;-37
2023/11/17 12:16:21;;;;;;;6.38;5.57;;;10.20;99.90;;;;;;5067692;28;20063;-38
2023/11/17 12:18:50;;;;;;;7.07;5.63;;;10.20;99.90;;;;;;5061087;28;20502;-37
2023/11/17 12:21:21;;;;;;;5.45;4.95;;;10.20;99.90;;;;;;5073090;28;20412;-36
2023/11/17 12:23:54;;;;;;;5.25;4.75;;;10.20;99.90;;;;;;5060730;28;20106;-37
2023/11/17 12:26:24;;;;;;;;;;;10.30;99.90;;;;;;5073448;28;20743;-37
2023/11/17 12:28:50;;;;;;;3.85;3.08;;;10.30;99.90;;;;;;5061169;28;19967;-37
2023/11/17 12:31:18;;;;;;;3.33;3.03;;;10.20;99.90;;;;;;5072349;28;20032;-36
2023/11/17 12:33:48;;;;;;;3.38;2.63;;;10.20;99.90;;;;;;5060819;28;20078;-36
2023/11/17 12:36:19;;;;;;;2.92;2.63;;;10.20;99.90;;;;;;5071925;28;20077;-37
2023/11/17 12:38:59;;;;;;;2.70;2.35;;;10.20;99.90;;;;;;5061116;28;20142;-38
2023/11/17 12:41:26;;;;;;;2.90;2.67;;;10.20;99.90;;;;;;5071363;28;20820;-38
2023/11/17 12:43:56;;;;;;;2.60;2.33;;;10.10;99.90;;;;;;5061569;28;20135;-36
2023/11/17 12:46:26;;;;;;;2.65;2.42;;;10.10;99.90;;;;;;5070552;28;20024;-36
2023/11/17 12:48:52;;;;;;;3.08;2.80;;;10.10;99.90;;;;;;5070254;28;20048;-37
2023/11/17 12:51:33;;;;;;;3.55;2.70;;;10.10;99.90;;;;;;5080579;28;20762;-36
2023/11/17 12:54:01;;;;;;;3.00;2.70;;;10.10;99.90;;;;;;5080254;28;20027;-35
2023/11/17 12:56:28;;;;;;;3.25;2.95;;;10.10;99.90;;;;;;5081013;28;20023;-37
2023/11/17 12:58:54;;;;;;;3.10;2.65;;;10.10;99.90;;;;;;5080828;28;20035;-36
2023/11/17 13:01:21;;;;;;;3.03;2.78;;;10.10;99.90;;;;;;5079435;28;20012;-37